sensor_id;sensor_type;location;lat;lon;timestamp;P1;durP1;ratioP1;P2;durP2;ratioP2
68886;SDS011;55925;51.764;6.402;2024-01-15T00:00:15;39.47;;;12.30;;
68886;SDS011;55925;51.764;6.402;2024-01-15T00:02:41;30.60;;;11.13;;
68886;SDS011;55925;51.764;6.402;2024-01-15T00:05:07;31.98;;;11.38;;
68886;SDS011;55925;51.764;6.402;2024-01-15T00:07:33;35.13;;;11.55;;
68886;SDS011;55925;51.764;6.402;2024-01-15T00:09:59;36.42;;;12.30;;
68886;SDS011;55925;51.764;6.402;2024-01-15T00:12:25;40.00;;;12.73;;
68886;SDS011;55925;51.764;6.402;2024-01-15T00:14:51;36.55;;;11.88;;
68886;SDS011;55925;51.764;6.402;2024-01-15T00:17:17;30.42;;;13.02;;
68886;SDS011;55925;51.764;6.402;2024-01-15T00:19:43;41.45;;;12.73;;
68886;SDS011;55925;51.764;6.402;2024-01-15T00:22:09;36.25;;;10.68;;
68886;SDS011;55925;51.764;6.402;2024-01-15T00:24:35;30.17;;;11.82;;
68886;SDS011;55925;51.764;6.402;2024-01-15T00:27:01;32.50;;;11.07;;
68886;SDS011;55925;51.764;6.402;2024-01-15T00:29:27;33.15;;;10.63;;
68886;SDS011;55925;51.764;6.402;2024-01-15T00:31:53;30.83;;;11.15;;
68886;SDS011;55925;51.764;6.402;2024-01-15T00:34:19;24.95;;;10.43;;
68886;SDS011;55925;51.764;6.402;2024-01-15T00:36:45;26.77;;;9.60;;
68886;SDS011;55925;51.764;6.402;2024-01-15T00:39:11;27.70;;;9.65;;
68886;SDS011;55925;51.764;6.402;2024-01-15T00:41:37;31.35;;;12.05;;
68886;SDS011;55925;51.764;6.402;2024-01-15T00:44:03;29.35;;;9.68;;
68886;SDS011;55925;51.764;6.402;2024-01-15T00:46:29;28.33;;;9.48;;
68886;SDS011;55925;51.764;6.402;2024-01-15T00:48:55;29.17;;;9.50;;
68886;SDS011;55925;51.764;6.402;2024-01-15T00:51:21;22.90;;;8.20;;
68886;SDS011;55925;51.764;6.402;2024-01-15T00:53:46;23.63;;;8.68;;
68886;SDS011;55925;51.764;6.402;2024-01-15T00:56:13;24.50;;;9.20;;
68886;SDS011;55925;51.764;6.402;2024-01-15T00:58:39;22.40;;;7.60;;
68886;SDS011;55925;51.764;6.402;2024-01-15T01:01:05;21.48;;;8.45;;
68886;SDS011;55925;51.764;6.402;2024-01-15T01:03:30;15.02;;;7.07;;
68886;SDS011;55925;51.764;6.402;2024-01-15T01:05:56;21.48;;;7.00;;
68886;SDS011;55925;51.764;6.402;2024-01-15T01:08:22;19.80;;;6.72;;
68886;SDS011;55925;51.764;6.402;2024-01-15T01:10:48;15.57;;;6.68;;
68886;SDS011;55925;51.764;6.402;2024-01-15T01:13:14;16.02;;;7.10;;
68886;SDS011;55925;51.764;6.402;2024-01-15T01:15:40;20.40;;;7.40;;
68886;SDS011;55925;51.764;6.402;2024-01-15T01:18:06;24.35;;;6.75;;
68886;SDS011;55925;51.764;6.402;2024-01-15T01:20:32;15.95;;;6.60;;
68886;SDS011;55925;51.764;6.402;2024-01-15T01:22:58;15.43;;;7.13;;
68886;SDS011;55925;51.764;6.402;2024-01-15T01:25:24;17.40;;;6.18;;
68886;SDS011;55925;51.764;6.402;2024-01-15T01:27:50;16.13;;;5.68;;
68886;SDS011;55925;51.764;6.402;2024-01-15T01:30:16;15.68;;;6.32;;
68886;SDS011;55925;51.764;6.402;2024-01-15T01:32:42;15.13;;;6.03;;
68886;SDS011;55925;51.764;6.402;2024-01-15T01:35:08;11.90;;;3.63;;
68886;SDS011;55925;51.764;6.402;2024-01-15T01:37:34;19.85;;;6.22;;
68886;SDS011;55925;51.764;6.402;2024-01-15T01:40:00;16.00;;;6.00;;
68886;SDS011;55925;51.764;6.402;2024-01-15T01:42:26;11.90;;;5.40;;
68886;SDS011;55925;51.764;6.402;2024-01-15T01:44:52;16.13;;;6.35;;
68886;SDS011;55925;51.764;6.402;2024-01-15T01:47:18;12.50;;;5.30;;
68886;SDS011;55925;51.764;6.402;2024-01-15T01:49:44;15.48;;;5.68;;
68886;SDS011;55925;51.764;6.402;2024-01-15T01:52:11;13.35;;;4.80;;
68886;SDS011;55925;51.764;6.402;2024-01-15T01:54:37;14.10;;;6.05;;
68886;SDS011;55925;51.764;6.402;2024-01-15T01:57:03;14.43;;;5.95;;
68886;SDS011;55925;51.764;6.402;2024-01-15T01:59:30;14.35;;;5.22;;
68886;SDS011;55925;51.764;6.402;2024-01-15T02:01:57;15.32;;;6.03;;
68886;SDS011;55925;51.764;6.402;2024-01-15T02:04:24;12.70;;;6.53;;
68886;SDS011;55925;51.764;6.402;2024-01-15T02:06:50;11.82;;;4.97;;
68886;SDS011;55925;51.764;6.402;2024-01-15T02:09:17;18.02;;;5.85;;
68886;SDS011;55925;51.764;6.402;2024-01-15T02:11:43;13.43;;;5.13;;
68886;SDS011;55925;51.764;6.402;2024-01-15T02:14:11;12.63;;;5.13;;
68886;SDS011;55925;51.764;6.402;2024-01-15T02:16:37;15.65;;;5.10;;
68886;SDS011;55925;51.764;6.402;2024-01-15T02:19:03;13.27;;;4.63;;
68886;SDS011;55925;51.764;6.402;2024-01-15T02:21:29;18.33;;;5.55;;
68886;SDS011;55925;51.764;6.402;2024-01-15T02:23:56;9.55;;;4.40;;
68886;SDS011;55925;51.764;6.402;2024-01-15T02:26:22;14.88;;;6.38;;
68886;SDS011;55925;51.764;6.402;2024-01-15T02:28:48;14.13;;;6.00;;
68886;SDS011;55925;51.764;6.402;2024-01-15T02:31:14;15.25;;;4.90;;
68886;SDS011;55925;51.764;6.402;2024-01-15T02:33:40;14.02;;;5.40;;
68886;SDS011;55925;51.764;6.402;2024-01-15T02:36:07;12.75;;;5.00;;
68886;SDS011;55925;51.764;6.402;2024-01-15T02:38:33;12.13;;;4.38;;
68886;SDS011;55925;51.764;6.402;2024-01-15T02:40:59;13.20;;;4.60;;
68886;SDS011;55925;51.764;6.402;2024-01-15T02:43:25;15.27;;;6.32;;
68886;SDS011;55925;51.764;6.402;2024-01-15T02:45:51;11.65;;;5.63;;
68886;SDS011;55925;51.764;6.402;2024-01-15T02:48:17;12.75;;;5.82;;
68886;SDS011;55925;51.764;6.402;2024-01-15T02:50:42;15.55;;;5.47;;
68886;SDS011;55925;51.764;6.402;2024-01-15T02:53:08;11.48;;;5.05;;
68886;SDS011;55925;51.764;6.402;2024-01-15T02:55:34;12.13;;;5.15;;
68886;SDS011;55925;51.764;6.402;2024-01-15T02:58:00;15.43;;;5.28;;
68886;SDS011;55925;51.764;6.402;2024-01-15T03:00:26;11.98;;;4.57;;
68886;SDS011;55925;51.764;6.402;2024-01-15T03:02:52;13.38;;;4.57;;
68886;SDS011;55925;51.764;6.402;2024-01-15T03:05:18;12.25;;;4.20;;
68886;SDS011;55925;51.764;6.402;2024-01-15T03:07:45;11.55;;;4.97;;
68886;SDS011;55925;51.764;6.402;2024-01-15T03:10:11;18.27;;;6.53;;
68886;SDS011;55925;51.764;6.402;2024-01-15T03:12:37;14.00;;;5.18;;
68886;SDS011;55925;51.764;6.402;2024-01-15T03:15:03;13.98;;;5.07;;
68886;SDS011;55925;51.764;6.402;2024-01-15T03:17:29;13.85;;;5.35;;
68886;SDS011;55925;51.764;6.402;2024-01-15T03:19:55;11.07;;;4.85;;
68886;SDS011;55925;51.764;6.402;2024-01-15T03:22:20;12.30;;;5.13;;
68886;SDS011;55925;51.764;6.402;2024-01-15T03:24:46;12.50;;;4.88;;
68886;SDS011;55925;51.764;6.402;2024-01-15T03:27:12;11.40;;;4.05;;
68886;SDS011;55925;51.764;6.402;2024-01-15T03:29:39;14.40;;;5.88;;
68886;SDS011;55925;51.764;6.402;2024-01-15T03:32:05;13.90;;;5.55;;
68886;SDS011;55925;51.764;6.402;2024-01-15T03:34:31;11.45;;;4.50;;
68886;SDS011;55925;51.764;6.402;2024-01-15T03:36:57;11.02;;;3.60;;
68886;SDS011;55925;51.764;6.402;2024-01-15T03:39:24;9.70;;;5.03;;
68886;SDS011;55925;51.764;6.402;2024-01-15T03:41:50;12.65;;;3.90;;
68886;SDS011;55925;51.764;6.402;2024-01-15T03:44:16;9.77;;;3.38;;
68886;SDS011;55925;51.764;6.402;2024-01-15T03:46:42;9.93;;;3.10;;
68886;SDS011;55925;51.764;6.402;2024-01-15T03:49:08;9.20;;;3.53;;
68886;SDS011;55925;51.764;6.402;2024-01-15T03:51:34;7.88;;;3.90;;
68886;SDS011;55925;51.764;6.402;2024-01-15T03:54:00;7.18;;;3.03;;
68886;SDS011;55925;51.764;6.402;2024-01-15T03:56:26;8.15;;;2.42;;
68886;SDS011;55925;51.764;6.402;2024-01-15T03:58:52;9.40;;;2.38;;
68886;SDS011;55925;51.764;6.402;2024-01-15T04:01:18;7.40;;;2.75;;
68886;SDS011;55925;51.764;6.402;2024-01-15T04:03:43;9.27;;;2.92;;
68886;SDS011;55925;51.764;6.402;2024-01-15T04:06:09;7.78;;;2.80;;
68886;SDS011;55925;51.764;6.402;2024-01-15T04:08:35;7.15;;;2.97;;
68886;SDS011;55925;51.764;6.402;2024-01-15T04:11:01;7.28;;;2.92;;
68886;SDS011;55925;51.764;6.402;2024-01-15T04:13:27;8.77;;;3.17;;
68886;SDS011;55925;51.764;6.402;2024-01-15T04:15:53;9.75;;;3.30;;
68886;SDS011;55925;51.764;6.402;2024-01-15T04:18:19;12.20;;;3.63;;
68886;SDS011;55925;51.764;6.402;2024-01-15T04:20:45;8.88;;;2.63;;
68886;SDS011;55925;51.764;6.402;2024-01-15T04:23:11;6.25;;;2.38;;
68886;SDS011;55925;51.764;6.402;2024-01-15T04:25:37;7.15;;;2.47;;
68886;SDS011;55925;51.764;6.402;2024-01-15T04:28:06;5.10;;;1.95;;
68886;SDS011;55925;51.764;6.402;2024-01-15T04:30:32;8.60;;;4.03;;
68886;SDS011;55925;51.764;6.402;2024-01-15T04:32:58;6.88;;;2.10;;
68886;SDS011;55925;51.764;6.402;2024-01-15T04:35:24;7.57;;;2.78;;
68886;SDS011;55925;51.764;6.402;2024-01-15T04:37:50;8.15;;;2.78;;
68886;SDS011;55925;51.764;6.402;2024-01-15T04:40:15;10.65;;;2.15;;
68886;SDS011;55925;51.764;6.402;2024-01-15T04:42:41;12.15;;;2.20;;
68886;SDS011;55925;51.764;6.402;2024-01-15T04:45:08;4.95;;;1.98;;
68886;SDS011;55925;51.764;6.402;2024-01-15T04:47:34;7.85;;;1.65;;
68886;SDS011;55925;51.764;6.402;2024-01-15T04:50:01;9.50;;;3.08;;
68886;SDS011;55925;51.764;6.402;2024-01-15T04:52:27;9.60;;;2.83;;
68886;SDS011;55925;51.764;6.402;2024-01-15T04:54:53;8.95;;;2.78;;
68886;SDS011;55925;51.764;6.402;2024-01-15T04:57:19;11.30;;;2.35;;
68886;SDS011;55925;51.764;6.402;2024-01-15T04:59:45;5.85;;;2.13;;
68886;SDS011;55925;51.764;6.402;2024-01-15T05:02:11;8.48;;;2.20;;
68886;SDS011;55925;51.764;6.402;2024-01-15T05:04:37;7.10;;;2.65;;
68886;SDS011;55925;51.764;6.402;2024-01-15T05:07:03;6.35;;;2.17;;
68886;SDS011;55925;51.764;6.402;2024-01-15T05:09:29;7.20;;;2.20;;
68886;SDS011;55925;51.764;6.402;2024-01-15T05:11:55;7.78;;;2.78;;
68886;SDS011;55925;51.764;6.402;2024-01-15T05:14:21;9.90;;;3.38;;
68886;SDS011;55925;51.764;6.402;2024-01-15T05:16:47;9.90;;;2.35;;
68886;SDS011;55925;51.764;6.402;2024-01-15T05:19:13;7.97;;;2.22;;
68886;SDS011;55925;51.764;6.402;2024-01-15T05:21:39;9.82;;;2.30;;
68886;SDS011;55925;51.764;6.402;2024-01-15T05:24:05;8.65;;;2.95;;
68886;SDS011;55925;51.764;6.402;2024-01-15T05:26:31;6.13;;;1.70;;
68886;SDS011;55925;51.764;6.402;2024-01-15T05:28:57;7.93;;;2.10;;
68886;SDS011;55925;51.764;6.402;2024-01-15T05:31:23;6.95;;;2.20;;
68886;SDS011;55925;51.764;6.402;2024-01-15T05:33:49;3.97;;;1.85;;
68886;SDS011;55925;51.764;6.402;2024-01-15T05:36:15;7.93;;;2.03;;
68886;SDS011;55925;51.764;6.402;2024-01-15T05:38:41;5.90;;;2.42;;
68886;SDS011;55925;51.764;6.402;2024-01-15T05:41:07;7.47;;;2.42;;
68886;SDS011;55925;51.764;6.402;2024-01-15T05:43:33;9.55;;;2.63;;
68886;SDS011;55925;51.764;6.402;2024-01-15T05:45:59;9.82;;;2.22;;
68886;SDS011;55925;51.764;6.402;2024-01-15T05:48:24;5.95;;;1.92;;
68886;SDS011;55925;51.764;6.402;2024-01-15T05:50:50;9.30;;;2.97;;
68886;SDS011;55925;51.764;6.402;2024-01-15T05:53:16;6.07;;;2.47;;
68886;SDS011;55925;51.764;6.402;2024-01-15T05:55:42;7.85;;;2.58;;
68886;SDS011;55925;51.764;6.402;2024-01-15T05:58:08;7.10;;;2.63;;
68886;SDS011;55925;51.764;6.402;2024-01-15T06:00:34;8.57;;;3.00;;
68886;SDS011;55925;51.764;6.402;2024-01-15T06:03:01;9.73;;;2.97;;
68886;SDS011;55925;51.764;6.402;2024-01-15T06:05:27;7.82;;;2.72;;
68886;SDS011;55925;51.764;6.402;2024-01-15T06:07:53;13.00;;;2.78;;
68886;SDS011;55925;51.764;6.402;2024-01-15T06:10:18;8.38;;;2.50;;
68886;SDS011;55925;51.764;6.402;2024-01-15T06:12:44;6.72;;;2.58;;
68886;SDS011;55925;51.764;6.402;2024-01-15T06:15:10;7.45;;;2.13;;
68886;SDS011;55925;51.764;6.402;2024-01-15T06:17:37;9.15;;;2.60;;
68886;SDS011;55925;51.764;6.402;2024-01-15T06:20:03;7.50;;;2.80;;
68886;SDS011;55925;51.764;6.402;2024-01-15T06:22:29;5.05;;;2.40;;
68886;SDS011;55925;51.764;6.402;2024-01-15T06:24:55;6.25;;;3.03;;
68886;SDS011;55925;51.764;6.402;2024-01-15T06:27:21;7.07;;;2.63;;
68886;SDS011;55925;51.764;6.402;2024-01-15T06:29:47;7.38;;;2.63;;
68886;SDS011;55925;51.764;6.402;2024-01-15T06:32:13;6.65;;;2.40;;
68886;SDS011;55925;51.764;6.402;2024-01-15T06:34:39;8.85;;;2.78;;
68886;SDS011;55925;51.764;6.402;2024-01-15T06:37:05;8.27;;;2.75;;
68886;SDS011;55925;51.764;6.402;2024-01-15T06:39:31;7.60;;;2.20;;
68886;SDS011;55925;51.764;6.402;2024-01-15T06:41:57;7.47;;;3.00;;
68886;SDS011;55925;51.764;6.402;2024-01-15T06:44:23;6.82;;;2.88;;
68886;SDS011;55925;51.764;6.402;2024-01-15T06:46:49;9.68;;;3.13;;
68886;SDS011;55925;51.764;6.402;2024-01-15T06:49:16;8.82;;;2.67;;
68886;SDS011;55925;51.764;6.402;2024-01-15T06:51:42;6.82;;;2.65;;
68886;SDS011;55925;51.764;6.402;2024-01-15T06:54:08;7.82;;;2.70;;
68886;SDS011;55925;51.764;6.402;2024-01-15T06:56:34;5.30;;;2.42;;
68886;SDS011;55925;51.764;6.402;2024-01-15T06:59:00;10.38;;;2.95;;
68886;SDS011;55925;51.764;6.402;2024-01-15T07:01:26;10.23;;;3.40;;
68886;SDS011;55925;51.764;6.402;2024-01-15T07:03:52;7.55;;;2.97;;
68886;SDS011;55925;51.764;6.402;2024-01-15T07:06:18;6.68;;;2.83;;
68886;SDS011;55925;51.764;6.402;2024-01-15T07:08:44;5.30;;;2.15;;
68886;SDS011;55925;51.764;6.402;2024-01-15T07:11:10;7.55;;;2.70;;
68886;SDS011;55925;51.764;6.402;2024-01-15T07:13:36;6.90;;;3.42;;
68886;SDS011;55925;51.764;6.402;2024-01-15T07:16:02;7.53;;;3.22;;
68886;SDS011;55925;51.764;6.402;2024-01-15T07:18:28;7.90;;;3.08;;
68886;SDS011;55925;51.764;6.402;2024-01-15T07:20:54;6.93;;;2.53;;
68886;SDS011;55925;51.764;6.402;2024-01-15T07:23:20;6.63;;;2.85;;
68886;SDS011;55925;51.764;6.402;2024-01-15T07:25:46;6.45;;;2.60;;
68886;SDS011;55925;51.764;6.402;2024-01-15T07:28:12;12.25;;;4.22;;
68886;SDS011;55925;51.764;6.402;2024-01-15T07:30:38;8.40;;;3.40;;
68886;SDS011;55925;51.764;6.402;2024-01-15T07:33:04;10.00;;;3.30;;
68886;SDS011;55925;51.764;6.402;2024-01-15T07:35:30;10.43;;;3.35;;
68886;SDS011;55925;51.764;6.402;2024-01-15T07:37:56;7.55;;;2.85;;
68886;SDS011;55925;51.764;6.402;2024-01-15T07:40:22;7.97;;;3.35;;
68886;SDS011;55925;51.764;6.402;2024-01-15T07:42:49;9.40;;;2.95;;
68886;SDS011;55925;51.764;6.402;2024-01-15T07:45:15;13.13;;;3.83;;
68886;SDS011;55925;51.764;6.402;2024-01-15T07:47:41;8.15;;;2.92;;
68886;SDS011;55925;51.764;6.402;2024-01-15T07:50:07;11.45;;;3.75;;
68886;SDS011;55925;51.764;6.402;2024-01-15T07:52:33;7.97;;;3.28;;
68886;SDS011;55925;51.764;6.402;2024-01-15T07:54:59;7.32;;;3.70;;
68886;SDS011;55925;51.764;6.402;2024-01-15T07:57:26;7.57;;;3.15;;
68886;SDS011;55925;51.764;6.402;2024-01-15T07:59:52;7.28;;;3.05;;
68886;SDS011;55925;51.764;6.402;2024-01-15T08:02:18;9.18;;;3.60;;
68886;SDS011;55925;51.764;6.402;2024-01-15T08:04:44;9.95;;;3.47;;
68886;SDS011;55925;51.764;6.402;2024-01-15T08:07:10;6.85;;;2.53;;
68886;SDS011;55925;51.764;6.402;2024-01-15T08:09:38;8.02;;;3.10;;
68886;SDS011;55925;51.764;6.402;2024-01-15T08:12:04;7.13;;;3.28;;
68886;SDS011;55925;51.764;6.402;2024-01-15T08:14:31;7.93;;;3.05;;
68886;SDS011;55925;51.764;6.402;2024-01-15T08:16:57;8.25;;;2.60;;
68886;SDS011;55925;51.764;6.402;2024-01-15T08:19:23;6.75;;;2.50;;
68886;SDS011;55925;51.764;6.402;2024-01-15T08:21:49;7.13;;;2.33;;
68886;SDS011;55925;51.764;6.402;2024-01-15T08:24:15;4.47;;;1.80;;
68886;SDS011;55925;51.764;6.402;2024-01-15T08:26:41;6.97;;;2.10;;
68886;SDS011;55925;51.764;6.402;2024-01-15T08:29:07;6.00;;;2.35;;
68886;SDS011;55925;51.764;6.402;2024-01-15T08:31:33;4.07;;;1.52;;
68886;SDS011;55925;51.764;6.402;2024-01-15T08:33:59;6.50;;;2.00;;
68886;SDS011;55925;51.764;6.402;2024-01-15T08:36:26;6.45;;;2.13;;
68886;SDS011;55925;51.764;6.402;2024-01-15T08:38:54;5.53;;;2.08;;
68886;SDS011;55925;51.764;6.402;2024-01-15T08:41:20;7.28;;;2.08;;
68886;SDS011;55925;51.764;6.402;2024-01-15T08:43:46;8.43;;;2.10;;
68886;SDS011;55925;51.764;6.402;2024-01-15T08:46:12;6.25;;;1.73;;
68886;SDS011;55925;51.764;6.402;2024-01-15T08:48:38;5.85;;;1.88;;
68886;SDS011;55925;51.764;6.402;2024-01-15T08:51:04;5.63;;;2.17;;
68886;SDS011;55925;51.764;6.402;2024-01-15T08:53:31;6.70;;;1.60;;
68886;SDS011;55925;51.764;6.402;2024-01-15T08:55:57;4.93;;;1.63;;
68886;SDS011;55925;51.764;6.402;2024-01-15T08:58:23;5.38;;;2.05;;
68886;SDS011;55925;51.764;6.402;2024-01-15T09:00:50;6.57;;;1.98;;
68886;SDS011;55925;51.764;6.402;2024-01-15T09:03:16;8.02;;;1.90;;
68886;SDS011;55925;51.764;6.402;2024-01-15T09:05:42;6.78;;;2.33;;
68886;SDS011;55925;51.764;6.402;2024-01-15T09:08:08;7.63;;;1.88;;
68886;SDS011;55925;51.764;6.402;2024-01-15T09:10:34;6.90;;;2.38;;
68886;SDS011;55925;51.764;6.402;2024-01-15T09:13:00;5.80;;;1.80;;
68886;SDS011;55925;51.764;6.402;2024-01-15T09:15:26;5.38;;;1.88;;
68886;SDS011;55925;51.764;6.402;2024-01-15T09:17:52;4.55;;;2.33;;
68886;SDS011;55925;51.764;6.402;2024-01-15T09:20:18;5.75;;;2.05;;
68886;SDS011;55925;51.764;6.402;2024-01-15T09:22:44;4.97;;;1.98;;
68886;SDS011;55925;51.764;6.402;2024-01-15T09:25:10;4.95;;;1.75;;
68886;SDS011;55925;51.764;6.402;2024-01-15T09:27:36;7.43;;;2.13;;
68886;SDS011;55925;51.764;6.402;2024-01-15T09:30:03;4.93;;;1.80;;
68886;SDS011;55925;51.764;6.402;2024-01-15T09:32:29;6.07;;;2.28;;
68886;SDS011;55925;51.764;6.402;2024-01-15T09:34:55;8.52;;;3.08;;
68886;SDS011;55925;51.764;6.402;2024-01-15T09:37:21;6.65;;;2.60;;
68886;SDS011;55925;51.764;6.402;2024-01-15T09:39:48;11.25;;;3.00;;
68886;SDS011;55925;51.764;6.402;2024-01-15T09:42:15;6.43;;;2.58;;
68886;SDS011;55925;51.764;6.402;2024-01-15T09:44:42;7.30;;;2.95;;
68886;SDS011;55925;51.764;6.402;2024-01-15T09:47:08;6.15;;;2.60;;
68886;SDS011;55925;51.764;6.402;2024-01-15T09:49:34;7.78;;;2.90;;
68886;SDS011;55925;51.764;6.402;2024-01-15T09:52:01;6.80;;;2.70;;
68886;SDS011;55925;51.764;6.402;2024-01-15T09:54:27;8.55;;;3.00;;
68886;SDS011;55925;51.764;6.402;2024-01-15T09:56:54;6.60;;;2.83;;
68886;SDS011;55925;51.764;6.402;2024-01-15T09:59:20;8.00;;;2.97;;
68886;SDS011;55925;51.764;6.402;2024-01-15T10:01:48;5.95;;;2.33;;
68886;SDS011;55925;51.764;6.402;2024-01-15T10:04:15;5.78;;;1.95;;
68886;SDS011;55925;51.764;6.402;2024-01-15T10:06:43;7.63;;;2.90;;
68886;SDS011;55925;51.764;6.402;2024-01-15T10:09:13;6.10;;;2.08;;
68886;SDS011;55925;51.764;6.402;2024-01-15T10:11:40;7.53;;;2.83;;
68886;SDS011;55925;51.764;6.402;2024-01-15T10:14:07;8.95;;;2.50;;
68886;SDS011;55925;51.764;6.402;2024-01-15T10:16:33;8.00;;;3.22;;
68886;SDS011;55925;51.764;6.402;2024-01-15T10:18:59;7.18;;;2.10;;
68886;SDS011;55925;51.764;6.402;2024-01-15T10:21:25;7.00;;;2.50;;
68886;SDS011;55925;51.764;6.402;2024-01-15T10:23:54;5.95;;;2.25;;
68886;SDS011;55925;51.764;6.402;2024-01-15T10:26:24;4.57;;;1.58;;
68886;SDS011;55925;51.764;6.402;2024-01-15T10:28:51;6.80;;;2.35;;
68886;SDS011;55925;51.764;6.402;2024-01-15T10:31:20;4.95;;;1.88;;
68886;SDS011;55925;51.764;6.402;2024-01-15T10:33:47;5.57;;;1.92;;
68886;SDS011;55925;51.764;6.402;2024-01-15T10:36:13;7.35;;;1.88;;
68886;SDS011;55925;51.764;6.402;2024-01-15T10:38:41;4.07;;;1.45;;
68886;SDS011;55925;51.764;6.402;2024-01-15T10:41:07;5.57;;;1.73;;
68886;SDS011;55925;51.764;6.402;2024-01-15T10:43:33;7.20;;;1.52;;
68886;SDS011;55925;51.764;6.402;2024-01-15T10:45:59;6.22;;;1.25;;
68886;SDS011;55925;51.764;6.402;2024-01-15T10:48:25;3.85;;;1.50;;
68886;SDS011;55925;51.764;6.402;2024-01-15T10:50:53;6.85;;;2.00;;
68886;SDS011;55925;51.764;6.402;2024-01-15T10:53:19;3.10;;;1.15;;
68886;SDS011;55925;51.764;6.402;2024-01-15T10:55:46;3.70;;;1.17;;
68886;SDS011;55925;51.764;6.402;2024-01-15T10:58:16;3.90;;;1.40;;
68886;SDS011;55925;51.764;6.402;2024-01-15T11:00:42;5.07;;;1.30;;
68886;SDS011;55925;51.764;6.402;2024-01-15T11:03:08;2.70;;;1.17;;
68886;SDS011;55925;51.764;6.402;2024-01-15T11:05:38;4.97;;;1.73;;
68886;SDS011;55925;51.764;6.402;2024-01-15T11:08:07;4.70;;;2.08;;
68886;SDS011;55925;51.764;6.402;2024-01-15T11:10:46;5.63;;;2.45;;
68886;SDS011;55925;51.764;6.402;2024-01-15T11:16:02;6.30;;;2.90;;
68886;SDS011;55925;51.764;6.402;2024-01-15T11:18:29;7.30;;;3.35;;
68886;SDS011;55925;51.764;6.402;2024-01-15T11:23:43;7.75;;;3.03;;
68886;SDS011;55925;51.764;6.402;2024-01-15T11:26:54;5.40;;;3.05;;
68886;SDS011;55925;51.764;6.402;2024-01-15T11:29:02;7.60;;;3.05;;
68886;SDS011;55925;51.764;6.402;2024-01-15T11:34:01;6.70;;;2.83;;
68886;SDS011;55925;51.764;6.402;2024-01-15T11:44:22;7.13;;;2.70;;
68886;SDS011;55925;51.764;6.402;2024-01-15T11:49:39;8.48;;;2.60;;
68886;SDS011;55925;51.764;6.402;2024-01-15T11:52:11;6.80;;;2.60;;
68886;SDS011;55925;51.764;6.402;2024-01-15T11:54:38;8.10;;;3.30;;
68886;SDS011;55925;51.764;6.402;2024-01-15T11:57:05;6.95;;;2.03;;
68886;SDS011;55925;51.764;6.402;2024-01-15T11:59:33;6.65;;;1.95;;
68886;SDS011;55925;51.764;6.402;2024-01-15T12:01:59;5.05;;;2.10;;
68886;SDS011;55925;51.764;6.402;2024-01-15T12:04:25;6.35;;;2.08;;
68886;SDS011;55925;51.764;6.402;2024-01-15T12:06:51;4.53;;;1.83;;
68886;SDS011;55925;51.764;6.402;2024-01-15T12:09:20;4.60;;;1.67;;
68886;SDS011;55925;51.764;6.402;2024-01-15T12:11:48;5.60;;;2.10;;
68886;SDS011;55925;51.764;6.402;2024-01-15T12:14:16;5.13;;;2.00;;
68886;SDS011;55925;51.764;6.402;2024-01-15T12:16:42;5.82;;;2.10;;
68886;SDS011;55925;51.764;6.402;2024-01-15T12:19:08;8.38;;;2.08;;
68886;SDS011;55925;51.764;6.402;2024-01-15T12:21:34;4.55;;;1.80;;
68886;SDS011;55925;51.764;6.402;2024-01-15T12:24:00;5.03;;;1.92;;
68886;SDS011;55925;51.764;6.402;2024-01-15T12:26:26;8.90;;;2.13;;
68886;SDS011;55925;51.764;6.402;2024-01-15T12:28:52;5.40;;;1.95;;
68886;SDS011;55925;51.764;6.402;2024-01-15T12:31:18;4.65;;;1.70;;
68886;SDS011;55925;51.764;6.402;2024-01-15T12:33:44;5.18;;;1.63;;
68886;SDS011;55925;51.764;6.402;2024-01-15T12:36:12;4.07;;;1.55;;
68886;SDS011;55925;51.764;6.402;2024-01-15T12:38:38;3.17;;;1.35;;
68886;SDS011;55925;51.764;6.402;2024-01-15T12:41:04;4.47;;;1.10;;
68886;SDS011;55925;51.764;6.402;2024-01-15T12:43:30;7.20;;;1.35;;
68886;SDS011;55925;51.764;6.402;2024-01-15T12:45:56;5.72;;;1.60;;
68886;SDS011;55925;51.764;6.402;2024-01-15T12:48:22;4.30;;;1.20;;
68886;SDS011;55925;51.764;6.402;2024-01-15T12:50:48;6.45;;;1.40;;
68886;SDS011;55925;51.764;6.402;2024-01-15T12:53:14;5.25;;;1.08;;
68886;SDS011;55925;51.764;6.402;2024-01-15T12:55:40;3.85;;;1.20;;
68886;SDS011;55925;51.764;6.402;2024-01-15T12:58:06;5.07;;;1.02;;
68886;SDS011;55925;51.764;6.402;2024-01-15T13:00:32;2.42;;;1.15;;
68886;SDS011;55925;51.764;6.402;2024-01-15T13:02:58;6.60;;;1.45;;
68886;SDS011;55925;51.764;6.402;2024-01-15T13:05:25;4.72;;;1.63;;
68886;SDS011;55925;51.764;6.402;2024-01-15T13:07:52;4.68;;;1.40;;
68886;SDS011;55925;51.764;6.402;2024-01-15T13:10:18;5.70;;;1.30;;
68886;SDS011;55925;51.764;6.402;2024-01-15T13:12:44;2.55;;;0.82;;
68886;SDS011;55925;51.764;6.402;2024-01-15T13:15:09;9.73;;;1.77;;
68886;SDS011;55925;51.764;6.402;2024-01-15T13:17:37;5.13;;;1.42;;
68886;SDS011;55925;51.764;6.402;2024-01-15T13:20:03;6.35;;;1.20;;
68886;SDS011;55925;51.764;6.402;2024-01-15T13:22:29;3.10;;;1.00;;
68886;SDS011;55925;51.764;6.402;2024-01-15T13:24:57;3.83;;;1.20;;
68886;SDS011;55925;51.764;6.402;2024-01-15T13:27:23;5.90;;;1.60;;
68886;SDS011;55925;51.764;6.402;2024-01-15T13:29:49;8.02;;;1.40;;
68886;SDS011;55925;51.764;6.402;2024-01-15T13:32:17;3.35;;;1.80;;
68886;SDS011;55925;51.764;6.402;2024-01-15T13:34:45;4.30;;;1.33;;
68886;SDS011;55925;51.764;6.402;2024-01-15T13:37:11;3.65;;;1.58;;
68886;SDS011;55925;51.764;6.402;2024-01-15T13:39:38;6.50;;;1.70;;
68886;SDS011;55925;51.764;6.402;2024-01-15T13:42:03;5.25;;;1.67;;
68886;SDS011;55925;51.764;6.402;2024-01-15T13:44:29;4.18;;;2.13;;
68886;SDS011;55925;51.764;6.402;2024-01-15T13:46:55;6.55;;;1.23;;
68886;SDS011;55925;51.764;6.402;2024-01-15T13:49:22;4.43;;;1.05;;
68886;SDS011;55925;51.764;6.402;2024-01-15T13:51:49;4.18;;;1.10;;
68886;SDS011;55925;51.764;6.402;2024-01-15T13:54:15;3.55;;;1.15;;
68886;SDS011;55925;51.764;6.402;2024-01-15T13:56:40;6.03;;;1.23;;
68886;SDS011;55925;51.764;6.402;2024-01-15T13:59:07;6.57;;;1.50;;
68886;SDS011;55925;51.764;6.402;2024-01-15T14:01:33;4.43;;;1.52;;
68886;SDS011;55925;51.764;6.402;2024-01-15T14:03:59;4.90;;;1.40;;
68886;SDS011;55925;51.764;6.402;2024-01-15T14:06:25;5.18;;;1.95;;
68886;SDS011;55925;51.764;6.402;2024-01-15T14:08:51;7.93;;;1.63;;
68886;SDS011;55925;51.764;6.402;2024-01-15T14:11:17;3.53;;;1.30;;
68886;SDS011;55925;51.764;6.402;2024-01-15T14:13:43;7.05;;;1.83;;
68886;SDS011;55925;51.764;6.402;2024-01-15T14:16:09;3.28;;;1.33;;
68886;SDS011;55925;51.764;6.402;2024-01-15T14:18:36;3.13;;;1.20;;
68886;SDS011;55925;51.764;6.402;2024-01-15T14:21:02;4.38;;;1.33;;
68886;SDS011;55925;51.764;6.402;2024-01-15T14:23:28;4.75;;;1.10;;
68886;SDS011;55925;51.764;6.402;2024-01-15T14:25:54;4.05;;;1.33;;
68886;SDS011;55925;51.764;6.402;2024-01-15T14:28:20;6.90;;;1.95;;
68886;SDS011;55925;51.764;6.402;2024-01-15T14:30:48;3.58;;;0.88;;
68886;SDS011;55925;51.764;6.402;2024-01-15T14:33:14;3.22;;;1.20;;
68886;SDS011;55925;51.764;6.402;2024-01-15T14:35:40;3.53;;;1.00;;
68886;SDS011;55925;51.764;6.402;2024-01-15T14:38:06;4.32;;;0.80;;
68886;SDS011;55925;51.764;6.402;2024-01-15T14:40:32;6.13;;;1.33;;
68886;SDS011;55925;51.764;6.402;2024-01-15T14:42:58;2.50;;;1.02;;
68886;SDS011;55925;51.764;6.402;2024-01-15T14:45:24;4.90;;;1.00;;
68886;SDS011;55925;51.764;6.402;2024-01-15T14:47:52;4.70;;;1.30;;
68886;SDS011;55925;51.764;6.402;2024-01-15T14:50:18;3.63;;;1.10;;
68886;SDS011;55925;51.764;6.402;2024-01-15T14:52:44;4.35;;;0.98;;
68886;SDS011;55925;51.764;6.402;2024-01-15T14:55:11;6.60;;;1.63;;